Time;durP1;ratioP1;P1;durP2;ratioP2;P2;SDS_P1;SDS_P2;PMS_P1;PMS_P2;Temp;Humidity;BMP_temperature;BMP_pressure;BME280_temperature;BME280_humidity;BME280_pressure;Samples;Min_cycle;Max_cycle;Signal;HPM_P1;HPM_P2
2023/03/01 00:01:56;;;;;;;30.40;18.80;;;3.40;58.00;;;-1.87;86.95;95922.47;4952148;28;20026;-49
2023/03/01 00:04:25;;;;;;;33.63;19.75;;;3.40;58.10;;;-1.83;86.87;95917.69;4952477;28;20425;-49
2023/03/01 00:06:54;;;;;;;32.05;18.20;;;3.40;58.00;;;-1.79;86.81;95918.16;4950396;28;20141;-50
2023/03/01 00:09:20;;;;;;;35.78;18.92;;;3.50;58.10;;;-1.76;86.76;95917.78;4951098;28;20429;-50
2023/03/01 00:11:52;;;;;;;41.05;19.65;;;3.50;58.10;;;-1.78;86.87;95922.41;4933943;28;20026;-49
2023/03/01 00:14:21;;;;;;;37.67;20.27;;;3.50;58.10;;;-1.78;86.51;95919.78;4950837;28;20432;-48
2023/03/01 00:16:53;;;;;;;41.15;19.27;;;3.50;58.10;;;-1.76;86.33;95923.00;4951645;28;20125;-52
2023/03/01 00:19:21;;;;;;;39.00;20.50;;;3.50;58.10;;;-1.73;86.59;95913.00;4949744;28;20029;-48
2023/03/01 00:21:56;;;;;;;35.88;20.80;;;3.50;58.10;;;-1.93;86.58;95912.75;4939778;28;20141;-52
2023/03/01 00:24:22;;;;;;;34.13;19.67;;;3.50;58.10;;;-1.91;86.75;95905.53;4950313;28;20027;-51
2023/03/01 00:26:55;;;;;;;37.97;20.17;;;3.50;58.00;;;-1.86;86.63;95899.78;4951923;28;20026;-50
2023/03/01 00:29:25;;;;;;;37.03;19.30;;;3.50;58.10;;;-1.81;86.82;95894.84;4948845;28;21938;-50
2023/03/01 00:31:57;;;;;;;35.15;20.15;;;3.50;58.10;;;-1.81;86.30;95897.44;4950043;28;20553;-49
2023/03/01 00:34:26;;;;;;;42.92;21.20;;;3.50;58.10;;;-1.83;86.55;95893.38;4951868;28;20540;-48
2023/03/01 00:36:55;;;;;;;36.88;20.13;;;3.50;58.10;;;-1.86;87.02;95889.31;4946478;28;20063;-50
2023/03/01 00:39:26;;;;;;;36.75;20.45;;;3.40;58.00;;;-1.87;86.90;95896.34;4933232;28;20647;-50
2023/03/01 00:41:56;;;;;;;37.38;20.45;;;3.50;58.10;;;-1.88;86.51;95899.13;4932782;28;20393;-53
2023/03/01 00:44:22;;;;;;;36.45;20.95;;;3.50;58.10;;;-1.84;86.72;95889.16;4951772;28;20018;-53
2023/03/01 00:46:48;;;;;;;30.88;18.58;;;3.50;58.10;;;-1.82;86.57;95889.78;4950629;28;20096;-53
2023/03/01 00:49:16;;;;;;;31.73;19.25;;;3.50;58.10;;;-1.93;87.14;95888.44;4949882;28;20022;-52
2023/03/01 00:51:45;;;;;;;32.40;18.48;;;3.40;58.10;;;-1.99;87.23;95889.94;4949746;28;20035;-52
2023/03/01 00:54:14;;;;;;;35.92;19.58;;;3.40;58.10;;;-1.96;87.36;95892.22;4948590;28;20437;-53
2023/03/01 00:56:42;;;;;;;31.60;18.95;;;3.40;58.10;;;-1.91;87.15;95878.63;4950044;28;20030;-53
2023/03/01 00:59:10;;;;;;;31.80;19.05;;;3.40;58.10;;;-2.00;87.36;95884.94;4950382;28;20363;-49
2023/03/01 01:01:37;;;;;;;30.73;18.55;;;3.40;58.10;;;-1.97;87.22;95884.56;4951110;28;20034;-48
2023/03/01 01:04:09;;;;;;;31.85;19.45;;;3.40;58.20;;;-1.94;87.50;95884.22;4951762;28;20038;-49
2023/03/01 01:06:43;;;;;;;;;;;3.40;58.20;;;-1.96;87.59;95876.53;4950017;28;20053;-48
2023/03/01 01:09:16;;;;;;;29.85;17.77;;;3.40;58.20;;;-1.95;87.91;95878.16;4949762;28;19906;-50
2023/03/01 01:11:50;;;;;;;32.38;18.75;;;3.30;58.20;;;-1.95;87.73;95886.00;4949614;28;20027;-51
2023/03/01 01:14:19;;;;;;;35.35;19.63;;;3.40;58.20;;;-1.92;87.83;95871.75;4949938;28;20026;-48
2023/03/01 01:16:45;;;;;;;34.28;17.60;;;3.40;58.20;;;-1.87;87.66;95870.25;4949671;28;20022;-50
2023/03/01 01:19:13;;;;;;;30.63;17.95;;;3.40;58.30;;;-1.93;87.59;95868.34;4949379;28;20026;-51
2023/03/01 01:21:39;;;;;;;29.88;18.20;;;3.40;58.30;;;-1.88;87.97;95867.78;4934310;28;20034;-50
2023/03/01 01:24:07;;;;;;;40.92;21.08;;;3.40;58.30;;;-1.90;87.74;95867.19;4949008;28;20301;-50
2023/03/01 01:26:34;;;;;;;33.58;18.85;;;3.40;58.30;;;-1.87;87.92;95859.81;4937396;28;20033;-46
2023/03/01 01:29:04;;;;;;;31.70;18.90;;;3.40;58.30;;;-1.83;88.20;95856.81;4949294;28;20466;-49
2023/03/01 01:31:36;;;;;;;33.70;19.45;;;3.40;58.30;;;-1.83;87.90;95849.78;4949305;28;20066;-47
2023/03/01 01:34:07;;;;;;;30.35;17.33;;;3.40;58.30;;;-1.85;88.10;95854.38;4949290;28;20520;-48
2023/03/01 01:36:34;;;;;;;32.58;19.25;;;3.40;58.30;;;-1.81;87.61;95847.03;4935333;29;20027;-50
2023/03/01 01:39:01;;;;;;;32.13;18.38;;;3.50;58.40;;;-1.82;87.75;95840.97;4950733;29;20033;-47
2023/03/01 01:41:29;;;;;;;34.70;19.33;;;3.40;58.30;;;-1.82;87.23;95848.00;4948334;29;20049;-48
2023/03/01 01:44:23;;;;;;;29.30;17.88;;;3.50;58.40;;;-1.84;87.57;95842.97;4950862;28;20030;-47
2023/03/01 01:47:04;;;;;;;;;;;3.50;58.40;;;-1.77;87.60;95845.66;4950019;29;20018;-47
2023/03/01 01:49:54;;;;;;;32.50;18.55;;;3.50;58.40;;;-1.84;88.04;95837.75;4948588;29;19912;-47
2023/03/01 01:52:37;;;;;;;30.10;18.08;;;3.40;58.40;;;-1.86;88.13;95837.09;4949658;29;20030;-48
2023/03/01 01:55:27;;;;;;;30.08;18.60;;;3.50;58.40;;;-1.83;88.19;95834.13;4960692;28;20029;-49
2023/03/01 01:58:01;;;;;;;33.17;19.55;;;3.40;58.40;;;-1.92;87.60;95835.22;4933665;29;20061;-48
2023/03/01 02:00:29;;;;;;;27.90;17.55;;;3.50;58.40;;;-1.89;88.34;95835.66;4948266;28;20125;-52
2023/03/01 02:03:32;;;;;;;35.42;19.63;;;3.50;58.40;;;-1.87;88.23;95832.88;4949783;29;20046;-48
2023/03/01 02:06:28;;;;;;;34.80;19.50;;;3.50;58.40;;;-1.83;88.29;95823.69;4938729;29;20034;-50
2023/03/01 02:09:16;;;;;;;33.17;19.60;;;3.50;58.50;;;-1.82;88.18;95824.50;4951028;28;20030;-48
2023/03/01 02:11:51;;;;;;;32.17;18.40;;;3.40;58.40;;;-1.78;88.03;95815.31;4948153;29;20030;-50
2023/03/01 02:14:20;;;;;;;32.90;19.83;;;3.40;58.50;;;-1.73;87.83;95813.75;4930610;29;20031;-52
2023/03/01 02:16:47;;;;;;;31.67;19.95;;;3.50;58.60;;;-1.69;87.87;95809.81;4946844;29;20429;-51
2023/03/01 02:20:02;;;;;;;32.53;19.27;;;3.50;58.60;;;-1.68;87.43;95805.41;4932702;29;20460;-49
2023/03/01 02:22:35;;;;;;;32.40;18.55;;;3.50;58.60;;;-1.67;87.28;95813.03;4942242;29;20036;-51
2023/03/01 02:25:04;;;;;;;31.95;18.42;;;3.50;58.60;;;-1.68;87.08;95808.81;4948562;28;20023;-51
2023/03/01 02:28:13;;;;;;;29.92;18.17;;;3.50;58.60;;;-1.71;87.15;95806.56;4950889;28;20449;-48
2023/03/01 02:33:36;;;;;;;32.33;18.77;;;3.60;58.50;;;-1.52;86.87;95799.16;4951046;28;20416;-51
2023/03/01 02:36:13;;;;;;;30.63;17.23;;;3.60;58.60;;;-1.56;86.55;95793.47;4947972;28;20027;-47
2023/03/01 02:38:41;;;;;;;29.95;17.40;;;3.60;58.60;;;-1.59;86.77;95785.22;4953242;28;20129;-47
2023/03/01 02:41:13;;;;;;;30.33;17.80;;;3.70;58.60;;;-1.57;86.97;95786.63;4952438;28;20481;-50
2023/03/01 02:43:48;;;;;;;30.45;18.58;;;3.60;58.50;;;-1.55;86.46;95791.69;4961326;28;20114;-50
2023/03/01 02:46:25;;;;;;;30.55;17.88;;;3.70;58.50;;;-1.52;86.73;95794.72;4953383;28;20485;-49
2023/03/01 02:48:58;;;;;;;29.42;17.23;;;3.70;58.50;;;-1.55;86.75;95787.25;4968029;28;20719;-49
2023/03/01 02:52:01;;;;;;;27.35;16.52;;;3.70;58.50;;;-1.49;86.06;95789.13;4949151;28;20076;-48
2023/03/01 02:54:41;;;;;;;23.35;13.57;;;3.70;58.60;;;-1.52;86.09;95789.50;4941494;28;20027;-49
2023/03/01 02:57:09;;;;;;;29.90;17.42;;;3.70;58.50;;;-1.51;86.52;95788.50;4933667;29;20034;-47
2023/03/01 02:59:42;;;;;;;26.80;17.02;;;3.70;58.50;;;-1.48;86.39;95785.50;4939136;28;20026;-51
2023/03/01 03:02:40;;;;;;;30.80;17.20;;;3.70;58.50;;;-1.54;86.42;95778.41;4939026;28;20113;-47
2023/03/01 03:05:14;;;;;;;30.25;18.00;;;3.80;58.50;;;-1.47;86.20;95781.94;4953137;28;20137;-48
2023/03/01 03:07:44;;;;;;;29.85;18.13;;;3.80;58.50;;;-1.45;86.25;95768.66;4964969;28;20018;-48
2023/03/01 03:10:23;;;;;;;29.52;17.17;;;3.70;58.40;;;-1.47;86.36;95770.69;4953347;28;20052;-49
2023/03/01 03:13:00;;;;;;;30.23;17.67;;;3.80;58.50;;;-1.41;86.82;95775.97;4935786;28;20031;-48
2023/03/01 03:15:28;;;;;;;31.63;18.52;;;3.80;58.50;;;-1.39;86.55;95765.31;4951811;28;20077;-47
2023/03/01 03:17:59;;;;;;;35.90;18.67;;;3.80;58.50;;;-1.36;86.25;95766.75;4951830;28;20501;-49
2023/03/01 03:20:28;;;;;;;30.08;17.58;;;3.80;58.50;;;-1.38;86.20;95758.28;4932900;28;20062;-48
2023/03/01 03:22:58;;;;;;;31.77;17.70;;;3.80;58.40;;;-1.35;85.95;95761.31;4952711;28;20133;-49
2023/03/01 03:25:29;;;;;;;29.60;17.52;;;3.80;58.40;;;-1.42;85.41;95757.84;4951389;28;20023;-47
2023/03/01 03:27:57;;;;;;;28.33;17.63;;;3.90;58.40;;;-1.32;86.24;95757.53;4952258;28;20508;-48
2023/03/01 03:30:31;;;;;;;33.30;18.33;;;3.90;58.40;;;-1.25;85.65;95756.63;4950199;28;20053;-47
2023/03/01 03:33:03;;;;;;;30.30;17.25;;;3.90;58.40;;;-1.23;85.38;95756.44;4951894;28;20169;-49
2023/03/01 03:35:44;;;;;;;29.60;17.90;;;3.90;58.40;;;-1.21;85.29;95765.72;4950599;28;20019;-47
2023/03/01 03:38:21;;;;;;;27.27;16.33;;;4.00;58.40;;;-1.19;85.37;95762.91;4953082;28;20363;-49
2023/03/01 03:41:08;;;;;;;31.45;18.05;;;3.90;58.30;;;-1.17;85.14;95768.75;4950799;28;20027;-48
2023/03/01 03:43:37;;;;;;;28.52;16.92;;;4.00;58.40;;;-1.20;85.09;95771.75;4952461;28;20033;-47
2023/03/01 03:46:07;;;;;;;27.75;17.70;;;4.00;59.00;;;-1.19;85.47;95762.91;4951982;28;20034;-50
2023/03/01 03:48:39;;;;;;;34.53;18.13;;;4.00;58.30;;;-1.22;85.21;95758.06;4950510;28;20023;-48
2023/03/01 03:51:14;;;;;;;30.58;17.67;;;4.00;58.30;;;-1.28;85.98;95761.41;4952491;28;20382;-49
2023/03/01 03:53:42;;;;;;;32.33;18.80;;;4.00;58.30;;;-1.24;85.66;95765.28;4947685;28;20023;-50
2023/03/01 03:56:16;;;;;;;32.92;18.23;;;4.00;58.30;;;-1.22;85.39;95761.47;4951580;28;20037;-49
2023/03/01 03:58:48;;;;;;;29.00;16.83;;;4.00;58.30;;;-1.25;85.32;95751.41;4951437;28;20029;-51
2023/03/01 04:01:20;;;;;;;28.80;17.00;;;4.00;58.30;;;-1.22;85.78;95753.63;4943808;28;20031;-48
2023/03/01 04:03:54;;;;;;;28.98;16.52;;;4.00;58.30;;;-1.26;85.77;95754.19;4951369;28;20327;-48
2023/03/01 04:06:20;;;;;;;32.28;17.63;;;4.00;58.30;;;-1.26;85.73;95754.19;4945356;28;20033;-48
2023/03/01 04:08:46;;;;;;;33.08;19.13;;;4.00;58.30;;;-1.26;86.02;95764.63;4950176;28;20190;-47
2023/03/01 04:11:28;;;;;;;31.33;18.15;;;4.00;58.30;;;-1.19;85.60;95757.69;4947893;28;20027;-51
2023/03/01 04:13:59;;;;;;;25.40;15.15;;;4.00;58.30;;;-1.16;85.61;95757.28;4947828;28;20034;-48
2023/03/01 04:16:29;;;;;;;33.17;17.90;;;4.00;58.30;;;-1.19;85.74;95750.66;4933786;28;20035;-48
2023/03/01 04:18:59;;;;;;;31.30;18.73;;;4.00;58.30;;;-1.12;85.58;95752.53;4945466;28;20031;-51
2023/03/01 04:21:25;;;;;;;31.83;17.67;;;4.00;58.30;;;-1.13;85.71;95754.31;4943146;28;20046;-48
2023/03/01 04:23:54;;;;;;;31.65;17.95;;;4.10;58.40;;;-1.13;85.47;95743.84;4949961;28;20026;-50
2023/03/01 04:26:28;;;;;;;31.10;18.17;;;4.10;58.30;;;-1.11;85.45;95741.88;4951241;28;20026;-49
2023/03/01 04:28:57;;;;;;;32.38;18.55;;;4.10;58.30;;;-1.18;85.38;95743.63;4938986;28;20019;-49
2023/03/01 04:31:23;;;;;;;30.30;17.73;;;4.10;58.30;;;-1.11;85.72;95747.09;4948143;28;20026;-49
2023/03/01 04:33:56;;;;;;;30.38;17.70;;;4.10;58.30;;;-1.11;85.36;95744.47;4949666;28;20035;-48
2023/03/01 04:36:28;;;;;;;31.98;18.63;;;4.10;58.30;;;-1.09;85.12;95744.31;4948341;28;20027;-48
2023/03/01 04:39:00;;;;;;;31.13;17.67;;;4.10;58.30;;;-1.07;85.29;95750.13;4951080;28;20034;-48
2023/03/01 04:41:31;;;;;;;33.65;19.00;;;4.10;58.30;;;-1.04;85.16;95747.94;4948263;28;20049;-52
2023/03/01 04:43:59;;;;;;;33.55;17.45;;;4.10;58.30;;;-1.04;85.05;95739.31;4950055;28;20026;-47
2023/03/01 04:46:28;;;;;;;29.98;17.73;;;4.10;58.20;;;-1.06;85.42;95739.50;4965570;28;20018;-51
2023/03/01 04:48:54;;;;;;;31.15;17.80;;;4.10;58.20;;;-1.04;85.23;95740.09;4932106;28;20069;-51
2023/03/01 04:51:20;;;;;;;34.03;19.35;;;4.20;58.20;;;-1.20;85.44;95738.56;4948559;28;20050;-49
2023/03/01 04:53:52;;;;;;;32.60;18.50;;;4.10;58.20;;;-1.17;85.65;95738.19;4949906;28;20018;-50
2023/03/01 04:56:22;;;;;;;34.97;19.85;;;4.20;58.20;;;-1.10;86.19;95735.63;4946055;28;20034;-48
2023/03/01 04:58:57;;;;;;;35.60;19.20;;;4.10;58.20;;;-1.13;85.59;95737.81;4944692;28;20029;-52
2023/03/01 05:01:23;;;;;;;29.98;17.65;;;4.10;58.30;;;-1.07;85.65;95737.06;4948044;28;20029;-50
2023/03/01 05:03:52;;;;;;;34.78;19.20;;;4.20;58.30;;;-0.99;85.55;95735.13;4948215;28;20031;-47
2023/03/01 05:06:20;;;;;;;30.58;18.23;;;4.20;58.30;;;-0.95;85.48;95733.75;4945104;28;20023;-51
2023/03/01 05:08:46;;;;;;;32.78;19.35;;;4.20;58.30;;;-0.97;85.36;95733.16;4948789;28;20022;-48
2023/03/01 05:11:12;;;;;;;36.70;20.17;;;4.20;58.30;;;-0.94;85.68;95731.94;4948074;28;20037;-48
2023/03/01 05:13:40;;;;;;;34.35;18.13;;;4.20;58.90;;;-0.88;85.68;95735.59;4933293;28;20511;-48
2023/03/01 05:16:10;;;;;;;36.70;19.92;;;4.30;58.40;;;-0.91;85.46;95726.31;4950716;28;20474;-48
2023/03/01 05:18:37;;;;;;;32.15;18.65;;;4.30;58.40;;;-0.90;85.56;95727.16;4947610;28;20085;-49
2023/03/01 05:21:12;;;;;;;32.60;18.60;;;4.30;58.30;;;-0.92;85.49;95729.94;4948597;28;20039;-48
2023/03/01 05:23:39;;;;;;;32.10;18.98;;;4.30;58.30;;;-0.93;85.47;95725.72;4947880;28;20017;-49
2023/03/01 05:26:07;;;;;;;29.52;17.05;;;4.30;58.30;;;-0.95;86.06;95719.88;4950605;28;20052;-47
2023/03/01 05:28:37;;;;;;;36.95;19.90;;;4.30;58.30;;;-0.91;85.93;95723.72;4947722;28;20027;-49
2023/03/01 05:31:09;;;;;;;35.88;20.10;;;4.30;58.30;;;-0.98;86.06;95715.00;4948626;28;20065;-53
2023/03/01 05:33:37;;;;;;;33.78;20.50;;;4.30;58.30;;;-0.98;85.83;95720.25;4950080;28;20034;-48
2023/03/01 05:36:10;;;;;;;38.88;21.05;;;4.30;58.30;;;-0.95;85.93;95715.44;4945892;28;20023;-47
2023/03/01 05:38:39;;;;;;;35.03;20.23;;;4.30;58.30;;;-0.93;86.04;95710.84;4945652;28;20430;-51
2023/03/01 05:41:05;;;;;;;33.53;20.23;;;4.30;58.30;;;-0.91;86.16;95712.44;4946043;29;20516;-50
2023/03/01 05:43:33;;;;;;;30.10;18.88;;;4.30;58.40;;;-0.90;85.76;95707.03;4949752;28;20030;-48
2023/03/01 05:46:02;;;;;;;33.80;18.15;;;4.20;58.40;;;-0.87;86.22;95700.63;4969681;28;20450;-52
2023/03/01 05:48:31;;;;;;;39.40;21.23;;;4.30;58.40;;;-0.88;86.10;95699.00;4947742;28;20034;-52
2023/03/01 05:51:00;;;;;;;36.72;20.30;;;4.30;58.40;;;-0.87;85.77;95695.41;4948632;29;20370;-50
2023/03/01 05:53:29;;;;;;;39.33;21.08;;;4.30;58.40;;;-0.86;86.24;95694.38;4948375;29;20154;-52
2023/03/01 05:55:55;;;;;;;38.90;19.92;;;4.30;58.40;;;-0.88;86.02;95691.94;4948884;29;20034;-48
2023/03/01 05:58:24;;;;;;;38.20;19.95;;;4.30;58.40;;;-0.87;85.88;95690.97;4949396;29;20422;-49
2023/03/01 06:00:50;;;;;;;36.47;20.10;;;4.30;58.40;;;-0.89;85.87;95694.78;4963508;28;20482;-54
2023/03/01 06:03:18;;;;;;;34.45;19.30;;;4.30;58.40;;;-0.94;86.27;95688.31;4947897;28;20026;-52
2023/03/01 06:05:45;;;;;;;38.22;21.63;;;4.30;58.40;;;-0.89;86.28;95687.72;4951487;28;20474;-47
2023/03/01 06:08:12;;;;;;;33.08;18.92;;;4.30;58.40;;;-0.94;85.95;95696.16;4953937;28;20057;-48
2023/03/01 06:10:39;;;;;;;33.78;18.80;;;4.30;58.40;;;-1.01;85.94;95684.81;4953259;28;20363;-47
2023/03/01 06:13:05;;;;;;;36.22;19.77;;;4.30;58.40;;;-0.99;86.48;95687.25;4952514;28;20092;-50
2023/03/01 06:15:31;;;;;;;33.58;18.88;;;4.30;58.40;;;-1.01;86.16;95682.19;4828749;28;20054;-51
2023/03/01 06:18:00;;;;;;;35.22;19.80;;;4.30;58.40;;;-0.96;86.43;95679.03;4916649;29;20023;-47
2023/03/01 06:20:28;;;;;;;37.72;20.67;;;4.30;58.40;;;-1.07;86.33;95680.34;4964803;28;20100;-48
2023/03/01 06:22:55;;;;;;;38.63;20.73;;;4.30;58.40;;;-1.11;86.52;95678.31;4952484;28;20121;-47
2023/03/01 06:25:25;;;;;;;36.10;19.45;;;4.30;58.40;;;-1.10;86.69;95679.91;4952606;28;20138;-48
2023/03/01 06:27:54;;;;;;;34.45;19.35;;;4.20;58.40;;;-1.04;86.78;95684.38;4954079;28;20077;-47
2023/03/01 06:30:26;;;;;;;36.92;20.30;;;4.20;58.40;;;-1.00;86.79;95681.22;4955414;28;20041;-50
2023/03/01 06:33:01;;;;;;;37.20;19.52;;;4.30;58.50;;;-1.07;86.77;95680.34;4952117;28;20035;-48
2023/03/01 06:35:29;;;;;;;34.67;19.70;;;4.30;58.50;;;-1.02;86.89;95679.78;4951169;28;20027;-49
2023/03/01 06:38:02;;;;;;;31.77;18.10;;;4.20;58.40;;;-1.03;87.67;95681.59;4952404;28;20030;-48
2023/03/01 06:40:31;;;;;;;35.80;19.65;;;4.20;58.50;;;-0.96;87.65;95685.06;4952684;28;20027;-51
2023/03/01 06:42:59;;;;;;;35.40;19.38;;;4.30;58.50;;;-0.90;87.22;95680.88;4935101;28;20392;-50
2023/03/01 06:45:27;;;;;;;35.08;19.90;;;4.30;58.60;;;-0.89;86.85;95684.31;4953631;28;20019;-46
2023/03/01 06:48:03;;;;;;;36.22;19.13;;;4.30;58.60;;;-0.95;86.78;95697.13;4951752;28;20400;-51
2023/03/01 06:50:32;;;;;;;34.80;19.05;;;4.30;58.60;;;-0.98;87.48;95691.47;4951133;28;20030;-51
2023/03/01 06:52:58;;;;;;;33.85;18.85;;;4.30;58.50;;;-0.96;87.16;95687.69;4951662;28;20114;-52
2023/03/01 06:55:24;;;;;;;37.38;19.48;;;4.30;58.50;;;-0.97;87.65;95686.06;4946435;28;20046;-54
2023/03/01 06:57:56;;;;;;;34.33;18.35;;;4.30;58.60;;;-0.92;87.64;95690.72;4945875;28;20096;-48
2023/03/01 07:00:24;;;;;;;32.38;18.10;;;4.30;58.60;;;-0.85;87.50;95691.56;4945039;28;20739;-49
2023/03/01 07:02:52;;;;;;;36.33;19.48;;;4.30;58.60;;;-0.87;87.02;95683.13;4952548;28;20026;-50
2023/03/01 07:05:18;;;;;;;34.17;17.90;;;4.40;58.60;;;-0.80;87.31;95694.44;4927106;28;20034;-49
2023/03/01 07:07:44;;;;;;;36.58;19.98;;;4.40;58.60;;;-0.80;87.14;95694.44;4947105;28;20027;-52
2023/03/01 07:10:11;;;;;;;34.78;18.17;;;4.40;58.60;;;-0.84;87.55;95695.03;4962759;28;20031;-53
2023/03/01 07:12:41;;;;;;;31.42;18.60;;;4.40;58.60;;;-0.81;87.44;95692.81;4947625;28;20038;-48
2023/03/01 07:15:10;;;;;;;36.20;18.60;;;4.50;58.60;;;-0.79;87.53;95696.03;4950027;28;20109;-50
2023/03/01 07:17:36;;;;;;;35.17;19.50;;;4.50;58.60;;;-0.80;87.53;95691.81;4946552;28;20134;-55
2023/03/01 07:20:02;;;;;;;34.75;19.90;;;4.50;58.60;;;-0.81;87.16;95692.03;4944832;28;20140;-48
2023/03/01 07:22:28;;;;;;;34.28;18.75;;;4.50;58.60;;;-0.86;87.15;95686.53;4966080;28;20030;-49
2023/03/01 07:24:59;;;;;;;33.50;19.05;;;4.50;58.60;;;-0.91;87.66;95689.72;4929160;28;20066;-49
2023/03/01 07:27:25;;;;;;;33.70;18.42;;;4.50;58.60;;;-0.86;87.76;95686.53;4950948;28;20079;-49
2023/03/01 07:29:51;;;;;;;33.72;19.38;;;4.50;58.60;;;-0.88;87.95;95683.31;4947717;28;20030;-48
2023/03/01 07:32:26;;;;;;;37.50;19.50;;;4.50;58.60;;;-0.83;87.82;95684.34;4945332;28;20026;-49
2023/03/01 07:34:55;;;;;;;33.63;18.88;;;4.50;58.60;;;-0.83;87.20;95686.16;4946574;28;20026;-48
2023/03/01 07:37:24;;;;;;;38.00;19.67;;;4.50;58.60;;;-0.95;87.64;95685.88;4947166;28;20034;-50
2023/03/01 07:39:49;;;;;;;37.50;19.02;;;4.50;58.60;;;-0.95;88.25;95685.88;4950879;28;20033;-48
2023/03/01 07:42:15;;;;;;;35.33;18.77;;;4.50;58.60;;;-0.94;88.17;95685.69;4954436;28;20027;-50
2023/03/01 07:44:44;;;;;;;34.35;18.70;;;4.50;58.60;;;-0.90;87.95;95693.16;4951339;28;20031;-49
2023/03/01 07:47:12;;;;;;;35.50;18.70;;;4.50;58.60;;;-0.79;88.21;95682.16;4951340;28;20109;-48
2023/03/01 07:49:38;;;;;;;34.05;18.85;;;4.50;58.60;;;-0.81;87.90;95686.78;4948931;28;20022;-48
2023/03/01 07:52:04;;;;;;;35.25;18.90;;;4.50;58.60;;;-0.85;88.21;95680.31;4947951;28;20088;-53
2023/03/01 07:54:30;;;;;;;34.40;18.63;;;4.50;58.60;;;-0.81;88.08;95682.38;4930634;28;20026;-48
2023/03/01 07:56:57;;;;;;;32.25;18.88;;;4.50;58.60;;;-0.82;87.79;95667.66;4949671;28;20424;-48
2023/03/01 07:59:28;;;;;;;33.90;19.10;;;4.60;58.60;;;-0.81;87.88;95677.13;4944954;28;20054;-48
2023/03/01 08:01:56;;;;;;;31.50;17.65;;;4.60;58.60;;;-0.85;87.89;95672.47;4948307;28;20033;-49
2023/03/01 08:04:32;;;;;;;34.17;19.02;;;4.60;58.60;;;-0.84;88.74;95671.47;4948911;28;20035;-47
2023/03/01 08:07:04;;;;;;;36.47;18.38;;;4.60;58.60;;;-0.90;88.24;95669.63;4915614;28;20034;-49
2023/03/01 08:09:31;;;;;;;36.30;19.25;;;4.60;58.60;;;-0.81;87.76;95673.72;4952339;28;20209;-47
2023/03/01 08:12:00;;;;;;;31.25;18.38;;;4.60;58.60;;;-0.75;88.07;95670.34;4950651;28;20061;-50
2023/03/01 08:14:26;;;;;;;36.35;18.40;;;4.60;58.60;;;-0.75;87.82;95663.28;4950787;28;20042;-49
2023/03/01 08:16:55;;;;;;;37.40;18.65;;;4.70;58.60;;;-0.74;87.65;95669.31;4949392;28;20030;-48
2023/03/01 08:19:24;;;;;;;29.73;16.60;;;4.70;58.60;;;-0.67;87.15;95667.56;4949946;28;20026;-50
2023/03/01 08:21:53;;;;;;;36.20;18.73;;;4.70;58.60;;;-0.68;87.09;95660.72;4951496;28;20042;-51
2023/03/01 08:24:31;;;;;;;32.50;17.75;;;4.70;58.60;;;-0.67;87.59;95662.31;4951138;28;20018;-47
2023/03/01 08:27:03;;;;;;;33.83;17.85;;;4.80;58.60;;;-0.73;87.23;95665.69;4937627;28;20034;-48
2023/03/01 08:29:33;;;;;;;30.67;17.25;;;4.80;58.50;;;-0.67;87.32;95661.50;4948388;28;20059;-50
2023/03/01 08:32:02;;;;;;;33.15;19.08;;;4.80;58.50;;;-0.69;87.14;95656.47;4950798;28;20034;-49
2023/03/01 08:34:31;;;;;;;34.10;18.08;;;4.80;58.50;;;-0.68;87.39;95658.09;4951511;28;20143;-51
2023/03/01 08:37:00;;;;;;;29.90;17.80;;;4.80;58.50;;;-0.61;87.43;95656.31;4950569;28;20176;-48
2023/03/01 08:39:29;;;;;;;36.80;18.13;;;4.80;58.50;;;-0.61;87.41;95655.50;4951668;28;20473;-48
2023/03/01 08:41:58;;;;;;;33.63;18.08;;;4.80;58.50;;;-0.58;86.93;95653.31;4950466;28;20049;-51
2023/03/01 08:44:24;;;;;;;30.55;17.70;;;4.90;58.50;;;-0.56;86.69;95650.53;4934497;28;20066;-48
2023/03/01 08:46:55;;;;;;;31.73;17.75;;;4.90;58.40;;;-0.53;86.64;95648.31;4933895;28;20114;-48
2023/03/01 08:49:21;;;;;;;35.45;19.55;;;4.90;58.40;;;-0.56;86.34;95653.94;4957796;28;20089;-49
2023/03/01 08:51:48;;;;;;;35.22;18.13;;;5.00;58.40;;;-0.45;86.54;95654.38;4941835;28;20485;-51
2023/03/01 08:54:21;;;;;;;29.95;17.77;;;5.00;58.40;;;-0.40;86.21;95654.63;4933502;28;20026;-48
2023/03/01 08:56:48;;;;;;;31.15;18.42;;;5.00;58.40;;;-0.38;86.04;95656.03;4933843;28;20027;-48
2023/03/01 08:59:17;;;;;;;31.23;17.70;;;5.00;58.30;;;-0.36;86.14;95654.03;4951428;28;20026;-52
2023/03/01 09:01:49;;;;;;;32.28;18.35;;;5.10;58.40;;;-0.32;86.09;95651.81;4950611;28;20041;-47
2023/03/01 09:04:21;;;;;;;26.83;15.70;;;5.10;58.30;;;-0.53;86.22;95642.28;4933788;28;20240;-50
2023/03/01 09:06:49;;;;;;;32.80;19.33;;;5.10;58.20;;;-0.48;86.58;95648.53;4916365;28;20033;-48
2023/03/01 09:09:17;;;;;;;33.75;18.27;;;5.10;58.20;;;-0.56;86.63;95651.31;4949706;28;20743;-51
2023/03/01 09:11:49;;;;;;;34.05;18.58;;;5.10;58.10;;;-0.70;87.20;95645.19;4945125;28;20023;-52
2023/03/01 09:14:16;;;;;;;35.72;19.30;;;5.10;58.10;;;-0.63;87.26;95652.28;4947096;28;20030;-51
2023/03/01 09:16:42;;;;;;;34.33;19.02;;;5.10;58.10;;;-0.54;86.69;95640.66;4930468;28;20054;-51
2023/03/01 09:19:08;;;;;;;30.85;18.25;;;5.10;58.20;;;-0.55;86.82;95641.66;4946668;28;20039;-47
2023/03/01 09:21:34;;;;;;;31.55;18.35;;;5.10;58.10;;;-0.60;86.60;95637.00;4967708;23;20061;-48
2023/03/01 09:24:00;;;;;;;33.00;18.33;;;5.10;58.10;;;-0.52;86.72;95628.19;4955809;28;20038;-48
2023/03/01 09:26:32;;;;;;;34.47;19.00;;;5.10;58.00;;;-0.60;86.97;95633.56;4950325;28;20030;-49
2023/03/01 09:29:01;;;;;;;34.22;18.88;;;5.10;58.10;;;-0.49;86.68;95633.84;4942235;28;20022;-48
2023/03/01 09:31:27;;;;;;;30.10;17.15;;;5.10;58.10;;;-0.51;86.86;95632.41;4942214;28;20027;-52
2023/03/01 09:33:59;;;;;;;33.17;18.27;;;5.20;58.10;;;-0.58;87.03;95629.75;4937118;28;20041;-48
2023/03/01 09:36:28;;;;;;;29.05;17.30;;;5.20;58.10;;;-0.44;86.87;95632.44;4960216;28;20114;-50
2023/03/01 09:38:54;;;;;;;35.83;19.25;;;5.20;58.10;;;-0.35;86.17;95639.94;4945677;28;20599;-51
2023/03/01 09:42:04;;;;;;;34.05;19.10;;;5.20;58.10;;;-0.52;86.36;95638.66;4949103;29;20027;-49
2023/03/01 09:44:50;;;;;;;33.75;19.00;;;5.30;58.00;;;-0.51;86.45;95640.25;4946485;29;20113;-48
2023/03/01 09:47:32;;;;;;;31.33;17.75;;;5.20;58.00;;;-0.48;87.20;95645.09;4942936;29;20081;-51
2023/03/01 09:50:17;;;;;;;32.35;18.15;;;5.30;58.00;;;-0.54;86.94;95633.59;4943288;29;20114;-47
2023/03/01 09:53:28;;;;;;;31.00;16.45;;;5.30;58.00;;;-0.49;86.72;95641.69;4938278;29;20536;-48
2023/03/01 09:56:36;;;;;;;31.25;17.38;;;5.30;58.00;;;-0.40;86.29;95623.22;4951499;28;20026;-49
2023/03/01 09:59:30;;;;;;;30.95;18.35;;;5.30;58.00;;;-0.49;86.47;95625.19;4939995;29;20110;-51
2023/03/01 10:02:30;;;;;;;34.80;19.27;;;5.30;58.00;;;-0.47;86.28;95620.53;4937113;28;20082;-48
2023/03/01 10:06:03;;;;;;;31.77;18.58;;;5.30;57.90;;;-0.33;86.01;95627.47;4941725;29;20031;-50
2023/03/01 10:08:48;;;;;;;29.73;16.43;;;5.30;57.90;;;-0.34;85.94;95612.78;4917447;28;20247;-50
2023/03/01 10:11:48;;;;;;;33.83;16.80;;;5.30;58.00;;;-0.27;85.31;95610.97;4938423;29;20304;-50
2023/03/01 10:14:39;;;;;;;33.35;18.15;;;5.40;57.90;;;-0.15;85.39;95620.91;4942210;29;20031;-50
2023/03/01 10:17:56;;;;;;;35.20;18.80;;;5.40;57.90;;;-0.12;84.96;95612.66;4929368;29;20100;-48
2023/03/01 10:21:11;;;;;;;32.08;16.95;;;5.40;57.90;;;-0.19;84.53;95615.22;4932285;28;20027;-51
2023/03/01 10:23:38;;;;;;;34.13;17.95;;;5.40;57.80;;;-0.18;84.95;95611.63;4930098;29;20035;-50
2023/03/01 10:26:30;;;;;;;34.75;18.48;;;5.40;57.80;;;-0.32;85.61;95612.56;4934244;28;20025;-53
2023/03/01 10:29:13;;;;;;;29.75;16.30;;;5.50;57.70;;;-0.22;85.22;95613.00;4933117;29;20026;-51
2023/03/01 10:31:55;;;;;;;34.35;17.55;;;5.50;57.70;;;-0.25;85.25;95602.94;4931188;29;20045;-49
2023/03/01 10:34:39;;;;;;;32.33;17.60;;;5.50;57.70;;;-0.10;85.18;95606.19;4940212;29;20092;-51
2023/03/01 10:37:21;;;;;;;29.17;16.40;;;5.50;57.70;;;-0.09;85.07;95602.59;4944265;28;20113;-49
2023/03/01 10:39:56;;;;;;;35.63;18.50;;;5.50;57.70;;;-0.01;84.79;95601.59;4935566;29;20054;-50